Time;durP1;ratioP1;P1;durP2;ratioP2;P2;SDS_P1;SDS_P2;PMS_P1;PMS_P2;Temp;Humidity;BMP_temperature;BMP_pressure;BME280_temperature;BME280_humidity;BME280_pressure;Samples;Min_cycle;Max_cycle;Signal;HPM_P1;HPM_P2
2021/12/02 00:01:10;;;;;;;12.93;7.93;;;5.80;99.90;;;;;;4303777;33;20272;-65
2021/12/02 00:03:38;;;;;;;13.83;7.77;;;5.80;99.90;;;;;;4303368;33;20236;-65
2021/12/02 00:06:14;;;;;;;12.73;7.30;;;5.80;99.90;;;;;;4305504;33;20138;-65
2021/12/02 00:08:42;;;;;;;13.17;6.97;;;5.90;99.90;;;;;;4303556;33;20246;-65
2021/12/02 00:11:09;;;;;;;13.27;7.47;;;5.90;99.90;;;;;;4305529;33;20238;-65
2021/12/02 00:21:50;;;;;;;13.80;7.10;;;5.90;99.90;;;;;;4306187;33;20209;-65
2021/12/02 00:24:19;;;;;;;11.67;6.83;;;5.90;99.90;;;;;;4308039;33;20247;-65
2021/12/02 00:26:49;;;;;;;10.03;6.43;;;6.00;99.90;;;;;;4306833;33;20205;-65
2021/12/02 00:29:21;;;;;;;12.20;6.63;;;6.00;99.90;;;;;;4306269;33;20200;-65
2021/12/02 00:31:50;;;;;;;10.40;6.63;;;6.00;99.90;;;;;;4306206;33;20214;-65
2021/12/02 00:34:19;;;;;;;11.20;6.87;;;6.00;99.90;;;;;;4306686;33;20405;-65
2021/12/02 00:36:46;;;;;;;11.73;6.50;;;5.90;99.90;;;;;;4306556;33;20190;-65
2021/12/02 00:39:16;;;;;;;10.23;6.50;;;5.90;99.90;;;;;;4309189;33;20478;-65
2021/12/02 00:41:44;;;;;;;11.83;6.53;;;6.00;99.90;;;;;;4307113;33;20587;-65
2021/12/02 00:44:13;;;;;;;9.67;6.17;;;6.00;99.90;;;;;;4305896;33;20203;-65
2021/12/02 00:46:40;;;;;;;10.13;6.13;;;6.00;99.90;;;;;;4307569;33;20570;-65
2021/12/02 00:49:11;;;;;;;10.80;5.97;;;6.00;99.90;;;;;;4307870;33;20525;-65
2021/12/02 00:51:40;;;;;;;10.60;5.47;;;6.00;99.90;;;;;;4308789;33;20178;-65
2021/12/02 00:54:09;;;;;;;9.10;5.67;;;6.00;99.90;;;;;;4308075;33;20163;-65
2021/12/02 00:56:38;;;;;;;10.30;5.50;;;6.00;99.90;;;;;;4305492;33;20438;-65
2021/12/02 00:59:07;;;;;;;10.77;6.13;;;6.00;99.90;;;;;;4305713;33;20187;-65
2021/12/02 01:01:36;;;;;;;8.10;5.33;;;6.10;99.90;;;;;;4307782;33;20171;-65
2021/12/02 01:04:12;;;;;;;10.60;5.07;;;6.10;99.90;;;;;;4306711;33;20173;-65
2021/12/02 01:06:40;;;;;;;7.73;5.20;;;6.10;99.90;;;;;;4307410;33;20183;-65
2021/12/02 01:09:10;;;;;;;7.47;4.70;;;6.20;99.90;;;;;;4306207;33;20251;-65
2021/12/02 01:11:38;;;;;;;10.43;4.80;;;6.20;99.90;;;;;;4306872;33;20250;-65
2021/12/02 01:14:07;;;;;;;7.27;4.57;;;6.20;99.90;;;;;;4306269;33;20601;-65
2021/12/02 01:16:34;;;;;;;7.67;4.87;;;6.20;99.90;;;;;;4307702;33;20443;-65
2021/12/02 01:19:03;;;;;;;7.23;4.60;;;6.20;99.90;;;;;;4305753;33;20174;-65
2021/12/02 01:21:31;;;;;;;9.20;5.17;;;6.20;99.90;;;;;;4305706;33;20760;-65
2021/12/02 01:24:00;;;;;;;9.33;4.50;;;6.20;99.90;;;;;;4305476;33;20217;-65
2021/12/02 01:26:29;;;;;;;6.83;4.40;;;6.20;99.90;;;;;;4307399;33;20581;-65
2021/12/02 01:28:56;;;;;;;7.30;4.87;;;6.20;99.90;;;;;;4305375;33;20185;-65
2021/12/02 01:31:31;;;;;;;7.47;4.20;;;6.30;99.90;;;;;;4306511;33;20604;-65
2021/12/02 01:34:01;;;;;;;6.90;4.50;;;6.20;99.90;;;;;;4303613;33;20186;-65
2021/12/02 01:36:40;;;;;;;6.77;4.23;;;6.20;99.90;;;;;;4306845;33;20216;-65
2021/12/02 01:39:09;;;;;;;7.33;4.63;;;6.20;99.90;;;;;;4305953;33;20168;-65
2021/12/02 01:41:45;;;;;;;7.20;4.23;;;6.30;99.90;;;;;;4304679;33;20255;-65
2021/12/02 01:44:14;;;;;;;8.07;4.07;;;6.30;99.90;;;;;;4307439;33;20518;-65
2021/12/02 01:46:42;;;;;;;6.73;4.20;;;6.30;99.90;;;;;;4306157;33;20222;-65
2021/12/02 01:49:11;;;;;;;6.53;4.30;;;6.30;99.90;;;;;;4305601;33;20546;-65
2021/12/02 01:51:41;;;;;;;7.37;4.47;;;6.30;99.90;;;;;;4305453;33;20603;-65
2021/12/02 01:54:17;;;;;;;6.07;4.07;;;6.30;99.90;;;;;;4306743;33;20238;-65
2021/12/02 01:56:51;;;;;;;5.83;3.93;;;6.30;99.90;;;;;;4306239;33;20177;-65
2021/12/02 01:59:25;;;;;;;6.57;3.80;;;6.30;99.90;;;;;;4304931;33;20404;-65
2021/12/02 02:01:56;;;;;;;7.10;4.00;;;6.40;99.90;;;;;;4294562;33;20540;-66
2021/12/02 02:04:24;;;;;;;6.57;4.20;;;6.30;99.90;;;;;;4306873;33;20176;-65
2021/12/02 02:07:03;;;;;;;5.53;3.77;;;6.40;99.90;;;;;;4305048;33;20201;-65
2021/12/02 02:09:34;;;;;;;6.97;3.90;;;6.40;99.90;;;;;;4306361;33;20193;-65
2021/12/02 02:12:04;;;;;;;6.77;4.30;;;6.40;99.90;;;;;;4307049;33;20226;-65
2021/12/02 02:14:31;;;;;;;6.37;3.70;;;6.40;99.90;;;;;;4305966;33;20506;-66
2021/12/02 02:17:01;;;;;;;7.87;4.10;;;6.40;99.90;;;;;;4304914;33;20195;-65
2021/12/02 02:19:31;;;;;;;5.67;3.60;;;6.30;99.90;;;;;;4305136;33;20554;-65
2021/12/02 02:21:58;;;;;;;7.03;3.77;;;6.30;99.90;;;;;;4307533;33;20462;-65
2021/12/02 02:24:26;;;;;;;6.27;4.00;;;6.30;99.90;;;;;;4306564;33;20150;-65
2021/12/02 02:26:53;;;;;;;7.40;4.03;;;6.30;99.90;;;;;;4305086;33;20167;-65
2021/12/02 02:29:20;;;;;;;7.53;3.83;;;6.30;99.90;;;;;;4305147;33;20244;-66
2021/12/02 02:31:48;;;;;;;6.77;4.40;;;6.30;99.90;;;;;;4319375;33;20580;-65
2021/12/02 02:34:15;;;;;;;7.07;3.90;;;6.30;99.90;;;;;;4321090;33;20144;-66
2021/12/02 02:36:59;;;;;;;7.60;4.30;;;6.30;99.90;;;;;;4319215;33;20276;-65
2021/12/02 02:39:28;;;;;;;9.53;3.83;;;6.20;99.90;;;;;;4320738;33;20166;-66
2021/12/02 02:41:58;;;;;;;7.70;3.90;;;6.20;99.90;;;;;;4320634;33;20541;-66
2021/12/02 02:44:28;;;;;;;6.57;3.70;;;6.20;99.90;;;;;;4320306;33;20517;-66
2021/12/02 02:46:56;;;;;;;6.67;3.97;;;6.20;99.90;;;;;;4320468;33;20171;-66
2021/12/02 02:49:23;;;;;;;8.33;4.10;;;6.20;99.90;;;;;;4320543;33;20618;-66
2021/12/02 02:51:51;;;;;;;7.00;3.87;;;6.10;99.90;;;;;;4321734;33;20382;-66
2021/12/02 02:54:18;;;;;;;8.03;3.90;;;6.00;99.90;;;;;;4320812;33;20182;-66
2021/12/02 02:56:57;;;;;;;6.00;3.77;;;6.10;99.90;;;;;;4319299;33;20187;-66
2021/12/02 02:59:35;;;;;;;6.07;3.63;;;6.10;99.90;;;;;;4318602;33;20541;-66
2021/12/02 03:02:08;;;;;;;6.73;4.00;;;6.20;99.90;;;;;;4319174;33;20430;-66
2021/12/02 03:04:48;;;;;;;6.77;3.50;;;6.20;99.90;;;;;;4321804;33;20214;-66
2021/12/02 03:07:54;;;;;;;6.40;3.67;;;6.20;99.90;;;;;;4318978;33;20241;-66
2021/12/02 03:10:18;;;;;;;5.87;4.20;;;6.30;99.90;;;;;;4318724;33;20508;-65
2021/12/02 03:12:56;;;;;;;5.70;3.20;;;6.30;99.90;;;;;;4320165;33;20237;-66
2021/12/02 03:17:51;;;;;;;6.13;3.47;;;6.40;99.90;;;;;;4319576;33;20196;-66
2021/12/02 03:20:18;;;;;;;8.20;3.90;;;6.30;99.90;;;;;;4319627;33;20452;-66
2021/12/02 03:22:45;;;;;;;5.23;3.57;;;6.30;99.90;;;;;;4321294;33;20388;-66
2021/12/02 03:25:12;;;;;;;5.97;3.70;;;6.30;99.90;;;;;;4320663;33;20192;-66
2021/12/02 03:27:39;;;;;;;5.27;3.30;;;6.30;99.90;;;;;;4319312;33;20558;-66
2021/12/02 03:30:07;;;;;;;7.27;3.80;;;6.30;99.90;;;;;;4318636;33;20405;-66
2021/12/02 03:32:36;;;;;;;5.80;3.53;;;6.30;99.90;;;;;;4318188;33;20227;-66
2021/12/02 03:35:05;;;;;;;5.80;3.90;;;6.20;99.90;;;;;;4318636;33;20515;-66
2021/12/02 03:37:32;;;;;;;5.87;3.63;;;6.30;99.90;;;;;;4318723;33;20579;-66
2021/12/02 03:39:59;;;;;;;6.90;3.87;;;6.30;99.90;;;;;;4318630;33;20492;-66
2021/12/02 03:42:27;;;;;;;5.10;3.37;;;6.30;99.90;;;;;;4320138;33;20604;-66
2021/12/02 03:44:54;;;;;;;7.07;3.77;;;6.30;99.90;;;;;;4318692;33;20257;-66
2021/12/02 03:47:22;;;;;;;5.40;3.70;;;6.20;99.90;;;;;;4319032;33;20477;-66
2021/12/02 03:49:49;;;;;;;6.47;3.43;;;6.20;99.90;;;;;;4318203;33;20571;-66
2021/12/02 03:52:16;;;;;;;5.40;3.40;;;6.20;99.90;;;;;;4319287;33;20219;-66
2021/12/02 03:54:43;;;;;;;6.27;3.37;;;6.20;99.90;;;;;;4319426;33;20221;-66
2021/12/02 03:57:10;;;;;;;5.20;3.30;;;6.20;99.90;;;;;;4318220;33;20266;-66
2021/12/02 03:59:37;;;;;;;6.53;3.50;;;6.20;99.90;;;;;;4317921;33;20565;-66
2021/12/02 04:02:06;;;;;;;7.03;3.67;;;6.10;99.90;;;;;;4318163;33;20413;-66
2021/12/02 04:04:33;;;;;;;6.10;3.53;;;6.10;99.90;;;;;;4319657;33;20457;-66
2021/12/02 04:07:00;;;;;;;6.17;3.30;;;6.00;99.90;;;;;;4320961;33;20180;-66
2021/12/02 04:09:34;;;;;;;6.10;3.40;;;6.10;99.90;;;;;;4318452;33;20522;-66
2021/12/02 04:12:19;;;;;;;4.93;3.23;;;6.10;99.90;;;;;;4318690;33;20171;-66
2021/12/02 04:15:04;;;;;;;4.97;3.23;;;6.00;99.90;;;;;;4318015;33;20588;-66
2021/12/02 04:17:43;;;;;;;7.00;3.57;;;6.00;99.90;;;;;;4318118;33;20564;-66
2021/12/02 04:20:12;;;;;;;4.87;2.97;;;6.00;99.90;;;;;;4317989;33;20191;-66
2021/12/02 04:22:41;;;;;;;5.43;3.23;;;5.90;99.90;;;;;;4318425;33;20228;-66
2021/12/02 04:25:09;;;;;;;3.77;2.77;;;5.90;99.90;;;;;;4318737;33;20559;-66
2021/12/02 04:27:36;;;;;;;5.33;2.90;;;5.90;99.90;;;;;;4318443;33;20203;-66
2021/12/02 04:30:05;;;;;;;3.57;2.60;;;5.90;99.90;;;;;;4318665;33;20226;-66
2021/12/02 04:32:32;;;;;;;4.37;2.70;;;5.90;99.90;;;;;;4319395;33;20495;-66
2021/12/02 04:34:59;;;;;;;4.60;2.47;;;6.00;99.90;;;;;;4317811;33;20467;-66
2021/12/02 04:37:28;;;;;;;4.23;2.63;;;6.00;99.90;;;;;;4318980;33;20192;-66
2021/12/02 04:39:55;;;;;;;4.90;2.20;;;6.00;99.90;;;;;;4319815;33;20166;-66
2021/12/02 04:42:22;;;;;;;3.17;2.30;;;6.00;99.90;;;;;;4319454;33;20510;-66
2021/12/02 04:44:50;;;;;;;3.77;2.30;;;6.00;99.90;;;;;;4320573;33;20604;-66
2021/12/02 04:47:17;;;;;;;4.63;2.30;;;6.00;99.90;;;;;;4319386;33;20525;-66
2021/12/02 04:49:44;;;;;;;3.93;2.10;;;6.00;99.90;;;;;;4318719;33;20225;-66
2021/12/02 04:52:11;;;;;;;3.63;2.33;;;6.00;99.90;;;;;;4319405;33;20261;-66
2021/12/02 04:54:38;;;;;;;2.73;2.10;;;6.00;99.90;;;;;;4317796;33;20565;-66
2021/12/02 04:57:05;;;;;;;2.53;1.87;;;6.00;99.90;;;;;;4317888;33;20256;-66
2021/12/02 04:59:32;;;;;;;3.77;2.20;;;6.00;99.90;;;;;;4317597;33;20540;-66
2021/12/02 05:01:59;;;;;;;2.53;1.97;;;6.10;99.90;;;;;;4317954;33;20598;-66
2021/12/02 05:04:27;;;;;;;3.03;1.90;;;6.10;99.90;;;;;;4320255;33;20179;-66
2021/12/02 05:06:54;;;;;;;2.60;1.83;;;6.10;99.90;;;;;;4319341;33;20184;-66
2021/12/02 05:09:21;;;;;;;3.03;1.80;;;6.20;99.90;;;;;;4323249;33;20380;-66
2021/12/02 05:11:48;;;;;;;3.40;1.80;;;6.20;99.90;;;;;;4321617;33;20491;-66
2021/12/02 05:14:15;;;;;;;3.13;2.23;;;6.30;99.90;;;;;;4320576;33;20560;-66
2021/12/02 05:16:42;;;;;;;2.07;1.60;;;6.30;99.90;;;;;;4320601;33;20187;-66
2021/12/02 05:19:10;;;;;;;3.87;1.97;;;6.30;99.90;;;;;;4320610;33;20247;-66
2021/12/02 05:21:37;;;;;;;2.63;1.83;;;6.30;99.90;;;;;;4321441;33;20184;-66
2021/12/02 05:24:04;;;;;;;2.87;1.80;;;6.30;99.90;;;;;;4320958;33;20192;-66
2021/12/02 05:26:32;;;;;;;3.03;1.57;;;6.30;99.90;;;;;;4320515;33;20203;-66
2021/12/02 05:28:59;;;;;;;1.80;1.60;;;6.20;99.90;;;;;;4320320;33;20471;-66
2021/12/02 05:31:26;;;;;;;2.10;1.60;;;6.20;99.90;;;;;;4320545;33;20547;-66
2021/12/02 05:33:53;;;;;;;2.67;1.83;;;6.20;99.90;;;;;;4320323;33;20237;-66
2021/12/02 05:36:20;;;;;;;3.03;1.83;;;6.10;99.90;;;;;;4322676;33;20224;-66
2021/12/02 05:38:47;;;;;;;2.40;1.90;;;6.10;99.90;;;;;;4321492;33;20195;-66
2021/12/02 05:41:16;;;;;;;3.63;1.93;;;6.10;99.90;;;;;;4320224;33;20587;-66
2021/12/02 05:43:43;;;;;;;2.50;1.70;;;6.00;99.90;;;;;;4319510;33;20533;-66
2021/12/02 05:46:10;;;;;;;2.90;1.80;;;6.00;99.90;;;;;;4319689;33;20609;-66
2021/12/02 05:48:39;;;;;;;2.33;1.80;;;6.00;99.90;;;;;;4321427;33;20519;-66
2021/12/02 05:51:06;;;;;;;3.40;1.83;;;6.00;99.90;;;;;;4322760;33;20376;-66
2021/12/02 05:53:33;;;;;;;2.50;1.70;;;5.90;99.90;;;;;;4320156;33;20233;-66
2021/12/02 05:56:00;;;;;;;2.43;1.70;;;6.00;99.90;;;;;;4321653;33;20219;-66
2021/12/02 05:58:27;;;;;;;2.47;1.57;;;6.00;99.90;;;;;;4320697;33;20247;-66
2021/12/02 06:00:54;;;;;;;2.10;1.60;;;6.00;99.90;;;;;;4277678;33;20238;-66
2021/12/02 06:03:21;;;;;;;2.70;1.63;;;5.90;99.90;;;;;;4278051;33;20214;-66
2021/12/02 06:05:54;;;;;;;2.23;1.70;;;5.90;99.90;;;;;;4279100;33;20182;-66
2021/12/02 06:08:21;;;;;;;2.53;1.80;;;5.80;99.90;;;;;;4277372;33;20241;-66
2021/12/02 06:10:47;;;;;;;3.27;1.60;;;5.70;99.90;;;;;;4291714;33;20222;-66
2021/12/02 06:13:16;;;;;;;2.10;1.60;;;5.70;99.90;;;;;;4278352;33;20632;-66
2021/12/02 06:15:44;;;;;;;2.53;1.73;;;5.70;99.90;;;;;;4278688;33;20245;-66
2021/12/02 06:18:11;;;;;;;2.97;1.80;;;5.70;99.90;;;;;;4282542;33;20325;-66
2021/12/02 06:20:39;;;;;;;2.73;1.70;;;5.70;99.90;;;;;;4320164;33;20192;-66
2021/12/02 06:23:06;;;;;;;2.10;1.77;;;5.60;99.90;;;;;;4321412;33;20268;-66
2021/12/02 06:28:04;;;;;;;4.43;1.80;;;5.60;99.90;;;;;;4319120;33;20215;-66
2021/12/02 06:30:31;;;;;;;2.07;1.53;;;5.60;99.90;;;;;;4320631;33;20213;-66
2021/12/02 06:32:58;;;;;;;4.03;1.60;;;5.60;99.90;;;;;;4320495;33;20377;-66
2021/12/02 06:35:25;;;;;;;2.07;1.50;;;5.70;99.90;;;;;;4319726;33;20185;-66
2021/12/02 06:37:52;;;;;;;2.47;1.50;;;5.70;99.90;;;;;;4319675;33;20197;-66
2021/12/02 06:40:19;;;;;;;2.80;1.50;;;5.80;99.90;;;;;;4319196;33;20212;-66
2021/12/02 06:42:46;;;;;;;2.07;1.53;;;5.80;99.90;;;;;;4320612;33;20169;-66
2021/12/02 06:45:13;;;;;;;2.03;1.20;;;5.70;99.90;;;;;;4320602;33;20173;-66
2021/12/02 06:47:45;;;;;;;2.93;1.43;;;5.70;99.90;;;;;;4319302;33;20302;-66
2021/12/02 06:50:17;;;;;;;2.00;1.53;;;5.70;99.90;;;;;;4319615;33;20170;-66
2021/12/02 06:52:49;;;;;;;3.17;1.60;;;5.70;99.90;;;;;;4318919;33;20425;-66
2021/12/02 06:55:17;;;;;;;2.73;1.50;;;5.80;99.90;;;;;;4320703;33;20149;-66
2021/12/02 06:57:44;;;;;;;2.50;1.30;;;5.70;99.90;;;;;;4314288;33;20259;-66
2021/12/02 07:00:14;;;;;;;2.57;1.57;;;5.80;99.90;;;;;;4309663;33;20210;-66
2021/12/02 07:02:42;;;;;;;3.47;1.50;;;5.70;99.90;;;;;;4303958;33;20185;-66
2021/12/02 07:05:11;;;;;;;5.97;1.70;;;5.70;99.90;;;;;;4304510;33;20185;-66
2021/12/02 07:07:39;;;;;;;2.57;1.50;;;5.70;99.90;;;;;;4306854;33;20392;-66
2021/12/02 07:10:11;;;;;;;1.60;1.10;;;5.70;99.90;;;;;;4303935;33;20249;-66
2021/12/02 07:12:41;;;;;;;2.73;1.40;;;5.70;99.90;;;;;;4304469;33;20439;-66
2021/12/02 07:15:20;;;;;;;1.73;1.20;;;5.70;99.90;;;;;;4306051;33;20193;-66
2021/12/02 07:17:56;;;;;;;3.97;1.23;;;5.60;99.90;;;;;;4305551;33;20174;-69
2021/12/02 07:20:35;;;;;;;2.10;1.40;;;5.60;99.90;;;;;;4305432;33;20526;-66
2021/12/02 07:23:03;;;;;;;1.50;1.20;;;5.70;99.90;;;;;;4304102;33;20528;-66
2021/12/02 07:25:31;;;;;;;3.63;1.30;;;5.60;99.90;;;;;;4303560;33;20213;-67
2021/12/02 07:27:58;;;;;;;2.53;1.37;;;5.60;99.90;;;;;;4304224;33;20189;-66
2021/12/02 07:30:25;;;;;;;3.17;1.30;;;5.60;99.90;;;;;;4304340;33;20434;-66
2021/12/02 07:32:54;;;;;;;1.80;1.20;;;5.60;99.90;;;;;;4305150;33;20178;-66
2021/12/02 07:35:21;;;;;;;2.97;1.40;;;5.60;99.90;;;;;;4305272;33;20222;-66
2021/12/02 07:37:55;;;;;;;2.20;1.20;;;5.70;99.90;;;;;;4305100;33;20209;-66
2021/12/02 07:40:23;;;;;;;2.13;1.17;;;5.90;99.90;;;;;;4305409;33;20167;-66
2021/12/02 07:42:52;;;;;;;3.60;1.10;;;6.10;99.90;;;;;;4303663;33;20217;-66
2021/12/02 07:45:21;;;;;;;3.13;1.10;;;6.20;99.90;;;;;;4303231;33;20202;-66
2021/12/02 07:47:48;;;;;;;4.37;1.17;;;6.30;99.90;;;;;;4305218;33;20232;-66
2021/12/02 07:50:16;;;;;;;1.93;1.00;;;6.40;99.90;;;;;;4303953;33;20173;-66
2021/12/02 07:52:51;;;;;;;1.73;1.00;;;6.40;99.90;;;;;;4305461;33;20174;-66
2021/12/02 07:55:19;;;;;;;2.03;1.03;;;6.50;99.90;;;;;;4305266;33;20352;-66
2021/12/02 07:57:47;;;;;;;2.80;1.00;;;6.50;99.90;;;;;;4304796;33;20184;-66
2021/12/02 08:00:17;;;;;;;3.33;1.10;;;6.60;99.90;;;;;;4304763;33;20563;-66
2021/12/02 08:02:46;;;;;;;1.67;1.00;;;6.70;99.90;;;;;;4304975;33;20185;-66
2021/12/02 08:05:14;;;;;;;1.60;1.13;;;6.60;99.90;;;;;;4304092;33;20238;-66
2021/12/02 08:07:44;;;;;;;2.63;1.20;;;6.70;99.90;;;;;;4303354;33;20612;-66
2021/12/02 08:10:13;;;;;;;2.07;1.20;;;6.70;99.90;;;;;;4303463;33;20231;-66
2021/12/02 08:12:46;;;;;;;3.07;0.97;;;6.80;99.90;;;;;;4303458;33;20197;-66
2021/12/02 08:15:16;;;;;;;3.23;1.00;;;6.90;99.90;;;;;;4304622;33;20178;-66
2021/12/02 08:17:43;;;;;;;4.83;1.10;;;7.00;99.90;;;;;;4303937;33;20230;-66
2021/12/02 08:20:11;;;;;;;1.50;1.00;;;7.00;99.90;;;;;;4303148;33;20177;-67
2021/12/02 08:22:38;;;;;;;3.60;1.13;;;7.10;99.90;;;;;;4302995;33;20437;-67
2021/12/02 08:25:06;;;;;;;3.50;1.10;;;7.20;99.90;;;;;;4303679;33;20189;-66
2021/12/02 08:27:32;;;;;;;2.47;1.20;;;7.20;99.90;;;;;;4303426;33;20418;-67
2021/12/02 08:30:02;;;;;;;2.23;1.07;;;7.10;99.90;;;;;;4305894;33;20180;-66
2021/12/02 08:32:30;;;;;;;2.80;1.23;;;6.80;99.90;;;;;;4318676;33;20471;-66
2021/12/02 08:34:59;;;;;;;4.47;1.43;;;6.70;99.90;;;;;;4317584;33;20380;-67
2021/12/02 08:37:29;;;;;;;1.63;1.10;;;6.50;99.90;;;;;;4318466;33;20176;-67
2021/12/02 08:39:59;;;;;;;3.03;1.10;;;6.50;99.90;;;;;;4320516;33;20146;-67
2021/12/02 08:42:27;;;;;;;3.07;1.00;;;6.30;99.90;;;;;;4319316;33;20541;-66
2021/12/02 08:44:54;;;;;;;2.47;1.23;;;6.30;99.90;;;;;;4316327;33;20461;-66
2021/12/02 08:47:23;;;;;;;3.60;1.43;;;6.20;99.90;;;;;;4310774;33;20213;-66
2021/12/02 08:49:52;;;;;;;3.27;1.37;;;6.10;99.90;;;;;;4308543;33;20236;-67
2021/12/02 08:52:25;;;;;;;2.63;1.23;;;6.10;99.90;;;;;;4309297;33;20245;-66
2021/12/02 08:54:54;;;;;;;2.33;1.20;;;6.10;99.90;;;;;;4310365;33;20221;-66
2021/12/02 08:57:41;;;;;;;1.73;1.03;;;6.10;99.90;;;;;;4310300;33;20186;-66
2021/12/02 09:00:12;;;;;;;2.30;1.20;;;6.10;99.90;;;;;;4309601;33;20161;-67
2021/12/02 09:02:39;;;;;;;2.53;1.40;;;6.10;99.90;;;;;;4308011;33;20528;-66
2021/12/02 09:05:06;;;;;;;3.80;1.30;;;6.10;99.90;;;;;;4313364;33;20180;-66
2021/12/02 09:07:33;;;;;;;2.70;1.20;;;6.20;99.90;;;;;;4316548;33;20527;-66
2021/12/02 09:10:00;;;;;;;3.33;1.10;;;6.20;99.90;;;;;;4320994;33;20247;-66
2021/12/02 09:12:27;;;;;;;1.73;1.20;;;6.20;99.90;;;;;;4320997;33;20558;-66
2021/12/02 09:14:54;;;;;;;2.87;1.20;;;6.20;99.90;;;;;;4320686;33;20240;-66
2021/12/02 09:17:21;;;;;;;2.80;1.20;;;6.20;99.90;;;;;;4320478;33;20212;-66
2021/12/02 09:19:48;;;;;;;1.70;1.00;;;6.30;99.90;;;;;;4320133;33;20662;-66
2021/12/02 09:22:16;;;;;;;2.87;1.10;;;6.30;99.90;;;;;;4322049;33;20396;-66
2021/12/02 09:24:43;;;;;;;2.90;1.13;;;6.30;99.90;;;;;;4320888;33;20516;-67
2021/12/02 09:27:10;;;;;;;2.10;1.00;;;6.30;99.90;;;;;;4320346;33;20208;-66
2021/12/02 09:29:37;;;;;;;2.53;1.00;;;6.30;99.90;;;;;;4320516;33;20183;-66
2021/12/02 09:32:05;;;;;;;1.40;0.83;;;6.30;99.90;;;;;;4321379;33;20176;-66
2021/12/02 09:34:32;;;;;;;2.30;1.00;;;6.40;99.90;;;;;;4320063;33;20173;-66
2021/12/02 09:37:00;;;;;;;1.67;1.20;;;6.40;99.90;;;;;;4321980;33;20388;-67
2021/12/02 09:39:31;;;;;;;2.77;1.13;;;6.40;99.90;;;;;;4320154;33;20175;-65
2021/12/02 09:41:58;;;;;;;1.73;0.87;;;6.50;99.90;;;;;;4322427;33;20449;-65
2021/12/02 09:44:29;;;;;;;3.43;1.40;;;6.50;99.90;;;;;;4319682;33;20551;-65
2021/12/02 09:46:56;;;;;;;2.27;1.20;;;6.50;99.90;;;;;;4314396;33;20203;-65
2021/12/02 09:49:24;;;;;;;2.57;1.10;;;6.60;99.90;;;;;;4322213;33;20528;-65
2021/12/02 09:54:49;;;;;;;3.70;1.40;;;6.70;99.90;;;;;;4307400;33;20184;-65
2021/12/02 09:57:16;;;;;;;2.33;1.23;;;6.60;99.90;;;;;;4322501;33;20366;-65
2021/12/02 10:02:14;;;;;;;2.67;1.10;;;6.50;99.90;;;;;;4307027;33;20210;-65
2021/12/02 10:04:52;;;;;;;3.57;1.30;;;6.50;99.90;;;;;;4307709;33;20199;-65
2021/12/02 10:07:35;;;;;;;2.80;1.13;;;6.40;99.90;;;;;;4307714;33;20224;-65
2021/12/02 10:13:03;;;;;;;2.77;1.60;;;6.40;99.90;;;;;;4308064;33;20208;-65
2021/12/02 10:15:30;;;;;;;5.13;1.70;;;6.40;99.90;;;;;;4321062;33;20211;-65
2021/12/02 10:18:09;;;;;;;3.80;1.30;;;6.40;99.90;;;;;;4307594;33;20196;-65
2021/12/02 10:20:41;;;;;;;3.83;1.50;;;6.40;99.90;;;;;;4308624;33;20173;-65
2021/12/02 10:23:33;;;;;;;3.67;1.63;;;6.50;99.90;;;;;;4306974;33;20182;-65
2021/12/02 10:26:04;;;;;;;2.83;1.30;;;6.60;99.90;;;;;;4322037;33;20171;-65
2021/12/02 10:28:42;;;;;;;4.00;1.50;;;6.70;99.90;;;;;;4306888;33;20171;-65
2021/12/02 10:31:11;;;;;;;4.10;1.50;;;6.80;99.90;;;;;;4307447;33;20173;-65
2021/12/02 10:33:45;;;;;;;3.23;1.60;;;6.70;99.90;;;;;;4307503;33;20456;-65
2021/12/02 10:36:32;;;;;;;3.40;1.60;;;6.70;99.90;;;;;;4307244;33;20225;-65
2021/12/02 10:39:09;;;;;;;2.37;1.40;;;6.60;99.90;;;;;;4308868;33;20238;-66
2021/12/02 10:41:36;;;;;;;4.07;1.60;;;6.50;99.90;;;;;;4307555;33;20176;-65
2021/12/02 10:44:08;;;;;;;3.50;1.50;;;6.50;99.90;;;;;;4307085;33;20195;-65
2021/12/02 10:47:00;;;;;;;4.07;1.50;;;6.50;99.90;;;;;;4321385;33;20140;-65
2021/12/02 10:49:45;;;;;;;3.77;1.50;;;6.60;99.90;;;;;;4306730;33;20213;-65
2021/12/02 10:52:17;;;;;;;2.80;1.70;;;6.70;99.90;;;;;;4306442;33;20206;-65
2021/12/02 10:54:47;;;;;;;3.03;1.20;;;6.80;99.90;;;;;;4309290;33;20185;-65
2021/12/02 10:57:20;;;;;;;1.80;1.07;;;6.80;99.90;;;;;;4319976;33;20451;-65
2021/12/02 10:59:52;;;;;;;3.93;1.10;;;6.80;99.90;;;;;;4320925;33;20149;-65
2021/12/02 11:02:29;;;;;;;1.93;1.20;;;6.80;99.90;;;;;;4318633;33;20502;-66
2021/12/02 11:05:00;;;;;;;2.47;1.30;;;6.80;99.90;;;;;;4320191;33;20197;-66
2021/12/02 11:07:39;;;;;;;3.97;1.27;;;6.90;99.90;;;;;;4318952;33;20533;-65
2021/12/02 11:10:14;;;;;;;2.97;1.27;;;6.80;99.90;;;;;;4303252;33;20499;-66
2021/12/02 11:12:44;;;;;;;4.30;1.27;;;6.70;99.90;;;;;;4293533;33;20458;-66
2021/12/02 11:15:28;;;;;;;2.87;1.20;;;6.70;99.90;;;;;;4306853;33;20254;-66
2021/12/02 11:17:58;;;;;;;2.07;1.10;;;6.60;99.90;;;;;;4306859;33;20177;-66
2021/12/02 11:20:32;;;;;;;3.77;1.20;;;6.60;99.90;;;;;;4293967;33;20194;-66
2021/12/02 11:23:07;;;;;;;3.80;1.23;;;6.60;99.90;;;;;;4293731;33;20171;-67
2021/12/02 11:25:38;;;;;;;3.30;1.30;;;6.60;99.90;;;;;;4307579;33;20393;-65
2021/12/02 11:28:09;;;;;;;2.73;1.37;;;6.60;99.90;;;;;;4292683;33;20250;-65
2021/12/02 11:30:38;;;;;;;3.63;1.60;;;6.70;99.90;;;;;;4292197;33;20437;-65
2021/12/02 11:33:32;;;;;;;3.53;1.40;;;7.00;99.90;;;;;;4305785;33;20452;-66
2021/12/02 11:35:59;;;;;;;4.63;1.20;;;7.20;99.90;;;;;;4310786;33;20219;-65
2021/12/02 11:38:28;;;;;;;2.53;1.33;;;7.30;99.90;;;;;;4306188;33;20410;-65
2021/12/02 11:41:02;;;;;;;2.87;1.17;;;7.30;99.90;;;;;;4320169;33;20383;-66
2021/12/02 11:43:35;;;;;;;2.47;1.17;;;7.10;99.90;;;;;;4308018;33;20523;-65
2021/12/02 11:46:06;;;;;;;2.20;1.10;;;7.00;99.90;;;;;;4321125;33;20471;-66
2021/12/02 11:48:39;;;;;;;2.80;1.30;;;7.20;99.90;;;;;;4318236;33;20409;-66
2021/12/02 11:51:20;;;;;;;2.30;1.20;;;7.10;99.90;;;;;;4318610;33;20188;-66
2021/12/02 11:53:48;;;;;;;4.40;1.30;;;6.90;99.90;;;;;;4310409;33;20178;-66
2021/12/02 11:56:18;;;;;;;2.43;1.10;;;6.80;99.90;;;;;;4320891;33;20200;-66
2021/12/02 11:58:46;;;;;;;4.10;1.47;;;6.70;99.90;;;;;;4322055;33;20431;-67
2021/12/02 12:01:18;;;;;;;4.57;1.30;;;6.70;99.90;;;;;;4321900;33;20179;-66
2021/12/02 12:04:09;;;;;;;3.00;1.30;;;6.60;99.90;;;;;;4322129;33;20457;-66
2021/12/02 12:06:41;;;;;;;2.20;1.40;;;6.60;99.90;;;;;;4320286;33;20177;-67
2021/12/02 12:09:13;;;;;;;2.60;1.13;;;6.60;99.90;;;;;;4314128;33;20469;-66
2021/12/02 12:11:48;;;;;;;1.87;1.20;;;6.50;99.90;;;;;;4307518;33;20177;-66
2021/12/02 12:14:18;;;;;;;4.10;1.50;;;6.50;99.90;;;;;;4306033;33;20189;-67
2021/12/02 12:16:48;;;;;;;5.37;1.40;;;6.50;99.90;;;;;;4319970;33;20195;-66
2021/12/02 12:19:30;;;;;;;3.70;1.50;;;6.50;99.90;;;;;;4306062;33;20447;-67
2021/12/02 12:22:13;;;;;;;3.07;1.37;;;6.50;99.90;;;;;;4306943;33;20170;-66
2021/12/02 12:24:44;;;;;;;3.47;1.40;;;6.50;99.90;;;;;;4320209;33;20153;-67
2021/12/02 12:27:21;;;;;;;1.60;1.23;;;6.50;99.90;;;;;;4305956;33;20421;-66
2021/12/02 12:30:04;;;;;;;2.50;1.30;;;6.40;99.90;;;;;;4307262;33;20188;-66
2021/12/02 12:33:05;;;;;;;3.27;1.30;;;6.40;99.90;;;;;;4305374;33;20169;-66
2021/12/02 12:36:13;;;;;;;4.03;1.60;;;6.40;99.90;;;;;;4306613;33;20520;-66
2021/12/02 12:38:28;;;;;;;2.93;1.30;;;6.30;99.90;;;;;;4304562;33;20193;-66
2021/12/02 12:41:01;;;;;;;3.73;1.40;;;6.30;99.90;;;;;;4318828;33;20187;-67
2021/12/02 12:43:44;;;;;;;3.07;1.40;;;6.30;99.90;;;;;;4309966;33;20247;-67
2021/12/02 12:46:22;;;;;;;3.10;1.40;;;6.40;99.90;;;;;;4318872;33;20196;-66
2021/12/02 12:48:50;;;;;;;4.37;1.40;;;6.40;99.90;;;;;;4319326;33;20189;-67
2021/12/02 12:51:25;;;;;;;4.00;1.50;;;6.80;99.90;;;;;;4318107;33;20189;-70
2021/12/02 12:53:58;;;;;;;2.30;1.20;;;7.20;99.90;;;;;;4319627;33;20172;-67
2021/12/02 12:56:40;;;;;;;2.93;1.10;;;7.40;99.90;;;;;;4317845;33;20195;-67
2021/12/02 12:59:11;;;;;;;2.33;1.07;;;7.40;99.90;;;;;;4319447;33;20185;-67
2021/12/02 13:01:40;;;;;;;2.40;1.20;;;7.50;99.90;;;;;;4318855;33;20195;-68
2021/12/02 13:04:17;;;;;;;2.50;1.17;;;7.50;99.90;;;;;;4319134;33;20187;-67
2021/12/02 13:07:00;;;;;;;4.43;1.30;;;7.40;99.90;;;;;;4318992;33;20169;-67
2021/12/02 13:09:45;;;;;;;3.43;1.23;;;7.30;99.90;;;;;;4317798;33;20244;-66
2021/12/02 13:12:17;;;;;;;2.90;1.20;;;7.30;99.90;;;;;;4317417;33;20178;-67
2021/12/02 13:14:48;;;;;;;2.83;1.10;;;7.00;99.90;;;;;;4318389;33;20184;-67
2021/12/02 13:17:38;;;;;;;2.30;1.27;;;6.70;99.90;;;;;;4317472;33;20619;-66
2021/12/02 13:20:23;;;;;;;2.50;1.10;;;6.70;99.90;;;;;;4317655;33;20515;-66
2021/12/02 13:23:12;;;;;;;4.47;1.20;;;6.50;99.90;;;;;;4318877;33;20190;-66
2021/12/02 13:25:54;;;;;;;3.43;1.33;;;6.50;99.90;;;;;;4319418;33;20192;-66
2021/12/02 13:28:29;;;;;;;2.30;1.60;;;6.70;99.90;;;;;;4319661;33;20392;-66
2021/12/02 13:31:07;;;;;;;3.23;1.60;;;6.70;99.90;;;;;;4321106;33;20555;-66
2021/12/02 13:33:51;;;;;;;3.73;1.47;;;6.50;99.90;;;;;;4319771;33;20198;-66
2021/12/02 13:36:40;;;;;;;4.27;1.50;;;6.60;99.90;;;;;;4319919;33;20215;-66